Airfield :
LOGIN :

Register | Disclaimer

   EN    FR    IT 

 










Legend :    VFR   Marginal VFR   IFR   Intensive IFR   Very Intensive IFR
Visi :
Ceiling :
>= 8 km
>= 3000ft
5 to 8 km
1000 to 3000 ft
1500m to 5 km
500 to 1000 ft
800 to 1500m
200 to 500 ft
< 800m
< 200 ft
Symbols :   Thunderstorms  Fog  Heavy snow  Heavy precipitations  Wind > 20 kt
SIGMETs :     Misc.  Thunderstorms  Icing  Turbulence  Mountain Waves  Volcanic Ashes







- Airport Elevation : 1487 ft
- IATA code : MUC


EDDM - München Franz Josef Strauss

CURRENT METAR :
  • 132150Z 07010KT 9999 OVC011 M02/M04 Q1015 R88/190095 BECMG OVC009

EXPIRED METARs :
  • 132120Z 09010KT 9999 OVC012 M02/M04 Q1015 R88/190095 NOSIG
  • 132050Z 10010KT 9999 OVC013 M01/M04 Q1015 R88/190095 NOSIG
  • 132020Z 10012KT 9999 OVC014 M01/M04 Q1015 R88/190095 NOSIG
  • 131950Z 10010KT 9999 OVC015 M01/M04 Q1015 R88/190095 BECMG OVC012
  • 131920Z 10010KT 9999 BKN016 M01/M04 Q1015 R88/190095 NOSIG

TAF TAF EDDM
Valid from the 13 at 18:00 until the 15 at 00:00 UTC


131700Z 1318/1424 08007KT 9999 BKN015
TEMPO 1321/1410 OVC012
PROB30
TEMPO 1400/1408 4500 -SG OVC008
PROB40
TEMPO 1420/1424 3500 -SN OVC010
No reported NOTAMs for that airfield.



MET'MAP, your aeronautical weather chart ! - Copyright ORBIFLY December 2007 - Disclaimer

ORBIFLY MET'MAP TEAM :

Programming & Development : Alexandra Zaïnal
Concept & Development : Baudouin d'Aumeries
Co-Development & Prog : Marc-Olivier Méhu
Technical & hardware support : Manuel Goepfert

Contact : metmap@orbifly.com




SOURCES & CREDITS :

   NOAA